Air Quality Table

TIMESTAMP NO2 SO2 PM10 PM2.5 TEMP HUM AIRPRES WS WD NO
2022-11-30 11:00 53.19 µg/m3 1.29 µg/m3 16.14 µg/m3 6.09 µg/m3 13.2 °C 82.8 % 1,006.51 mbar 1.29 m/s 256.06 Deg 19.86 µg/m3
2022-11-30 10:00 66.16 µg/m3 1.78 µg/m3 20.27 µg/m3 8.23 µg/m3 13.02 °C 84.36 % 1,006.34 mbar 1.48 m/s 234.77 Deg 23.18 µg/m3
2022-11-30 09:00 81.31 µg/m3 2.99 µg/m3 27.52 µg/m3 12.78 µg/m3 12.63 °C 88.91 % 1,006.05 mbar 3.54 m/s 206.35 Deg 68.38 µg/m3
2022-11-30 08:00 79.39 µg/m3 2.12 µg/m3 20.2 µg/m3 9.17 µg/m3 12.44 °C 91.92 % 1,005.83 mbar 1.86 m/s 213.1 Deg 56.63 µg/m3
2022-11-30 07:00 68.1 µg/m3 0.92 µg/m3 15.57 µg/m3 7.16 µg/m3 12.42 °C 91.4 % 1,005.55 mbar 1.37 m/s 184.67 Deg 15.63 µg/m3
2022-11-30 06:00 28.73 µg/m3 -0.68 µg/m3 11.76 µg/m3 4.71 µg/m3 12.02 °C 88.16 % 1,005.48 mbar 2.19 m/s 229.46 Deg 4.34 µg/m3
2022-11-30 05:00 40.71 µg/m3 -0.06 µg/m3 20.45 µg/m3 10.24 µg/m3 12.55 °C 91.46 % 1,004.90 mbar 3.2 m/s 214.77 Deg 11.79 µg/m3
2022-11-30 04:00 51.78 µg/m3 1.98 µg/m3 21.34 µg/m3 11.11 µg/m3 13.14 °C 91.35 % 1,004.82 mbar 1.64 m/s 208.33 Deg 42.49 µg/m3
2022-11-30 03:00 51.76 µg/m3 1.48 µg/m3 17.41 µg/m3 8.72 µg/m3 13.84 °C 88.05 % 1,004.86 mbar 0.94 m/s 244.04 Deg 34.87 µg/m3
2022-11-30 02:00 56.81 µg/m3 1.36 µg/m3 17.33 µg/m3 8.11 µg/m3 13.53 °C 90.97 % 1,004.89 mbar 0.96 m/s 245.93 Deg 15.78 µg/m3
2022-11-30 01:00 19.15 µg/m3 1.29 µg/m3 13.68 µg/m3 6.32 µg/m3 13.14 °C 91.89 % 1,005.13 mbar 1.81 m/s 235.43 Deg 0.4 µg/m3
2022-11-30 00:00 40.73 µg/m3 7.82 µg/m3 14.18 µg/m3 6.53 µg/m3 12.86 °C 90.5 % 1,005.51 mbar 3.44 m/s 209.61 Deg 12.64 µg/m3
2022-11-29 23:00 28.93 µg/m3 1.41 µg/m3 14.03 µg/m3 6.02 µg/m3 13.1 °C 83.89 % 1,005.35 mbar 4.08 m/s 215.51 Deg 2.5 µg/m3
2022-11-29 22:00 14.24 µg/m3 1.17 µg/m3 14.62 µg/m3 6.13 µg/m3 13.81 °C 84.01 % 1,005.20 mbar 2.93 m/s 269.98 Deg 1.03 µg/m3
2022-11-29 21:00 62.92 µg/m3 3.42 µg/m3 26.23 µg/m3 12.47 µg/m3 14.15 °C 88.12 % 1,004.96 mbar 0.98 m/s 211.18 Deg 16.94 µg/m3
2022-11-29 20:00 40.89 µg/m3 2.78 µg/m3 17.9 µg/m3 7.93 µg/m3 14.07 °C 86.45 % 1,004.68 mbar 0.5 m/s 228.02 Deg 2.72 µg/m3
2022-11-29 19:00 31.86 µg/m3 1.88 µg/m3 19.08 µg/m3 7.95 µg/m3 13.33 °C 87.33 % 1,004.63 mbar 0.84 m/s 204.26 Deg 3.1 µg/m3
2022-11-29 18:00 24.6 µg/m3 1.63 µg/m3 23.07 µg/m3 10.23 µg/m3 14.34 °C 87.22 % 1,004.47 mbar 2.28 m/s 238.21 Deg 1.49 µg/m3
2022-11-29 17:00 48.26 µg/m3 2.23 µg/m3 20.87 µg/m3 9.04 µg/m3 14.7 °C 86.89 % 1,004.13 mbar 0.99 m/s 248.13 Deg 7.66 µg/m3
2022-11-29 16:00 16.15 µg/m3 1.85 µg/m3 17.43 µg/m3 7.28 µg/m3 15.78 °C 84.43 % 1,004.02 mbar 0.93 m/s 246.56 Deg 2.05 µg/m3
2022-11-29 15:00 22.05 µg/m3 2.41 µg/m3 18.72 µg/m3 8.01 µg/m3 15.66 °C 83.88 % 1,004.22 mbar 0.78 m/s 222.21 Deg 4.09 µg/m3
2022-11-29 14:00 18.13 µg/m3 3.13 µg/m3 21.23 µg/m3 9.45 µg/m3 15.79 °C 80.43 % 1,004.55 mbar 0.96 m/s 248.23 Deg 2.59 µg/m3

It is to be noted that the data is provisional and subject to quality assurance procedures. For validated data kindly refer your request to contact.air@era.org.mt